sensor_id;sensor_type;location;lat;lon;timestamp;pressure;altitude;pressure_sealevel;temperature;humidity
77366;BME280;66430;50.182;11.704;2023-01-08T00:00:06;94086.26;;;7.54;42.09
77366;BME280;66430;50.182;11.704;2023-01-08T00:02:29;94085.03;;;7.90;41.88
77366;BME280;66430;50.182;11.704;2023-01-08T00:04:55;94084.46;;;7.76;41.71
77366;BME280;66430;50.182;11.704;2023-01-08T00:07:20;94081.72;;;7.78;41.55
77366;BME280;66430;50.182;11.704;2023-01-08T00:09:47;94075.21;;;7.78;41.47
77366;BME280;66430;50.182;11.704;2023-01-08T00:12:11;94073.55;;;7.75;41.31
77366;BME280;66430;50.182;11.704;2023-01-08T00:14:38;94075.21;;;7.70;41.60
77366;BME280;66430;50.182;11.704;2023-01-08T00:17:02;94075.34;;;7.50;41.51
77366;BME280;66430;50.182;11.704;2023-01-08T00:19:27;94072.67;;;7.59;41.54
77366;BME280;66430;50.182;11.704;2023-01-08T00:21:53;94062.19;;;7.56;41.74
77366;BME280;66430;50.182;11.704;2023-01-08T00:24:18;94064.94;;;7.90;41.86
77366;BME280;66430;50.182;11.704;2023-01-08T00:26:44;94065.39;;;7.66;41.64
77366;BME280;66430;50.182;11.704;2023-01-08T00:29:09;94067.46;;;7.30;41.75
77366;BME280;66430;50.182;11.704;2023-01-08T00:31:35;94068.93;;;7.58;41.31
77366;BME280;66430;50.182;11.704;2023-01-08T00:34:00;94060.52;;;7.52;41.16
77366;BME280;66430;50.182;11.704;2023-01-08T00:36:26;94050.57;;;7.58;41.28
77366;BME280;66430;50.182;11.704;2023-01-08T00:38:51;94048.11;;;7.17;41.97
77366;BME280;66430;50.182;11.704;2023-01-08T00:41:17;94039.35;;;7.40;41.76
77366;BME280;66430;50.182;11.704;2023-01-08T00:43:43;94031.92;;;7.16;41.61
77366;BME280;66430;50.182;11.704;2023-01-08T00:46:08;94032.22;;;7.43;41.48
77366;BME280;66430;50.182;11.704;2023-01-08T00:48:34;94022.94;;;7.72;41.39
77366;BME280;66430;50.182;11.704;2023-01-08T00:51:01;94019.92;;;7.45;41.23
77366;BME280;66430;50.182;11.704;2023-01-08T00:53:24;94017.52;;;7.49;41.14
77366;BME280;66430;50.182;11.704;2023-01-08T00:55:57;94024.80;;;7.50;41.19
77366;BME280;66430;50.182;11.704;2023-01-08T00:58:16;94022.98;;;7.44;41.69
77366;BME280;66430;50.182;11.704;2023-01-08T01:00:41;94026.00;;;7.32;41.43
77366;BME280;66430;50.182;11.704;2023-01-08T01:03:07;94024.30;;;7.53;41.38
77366;BME280;66430;50.182;11.704;2023-01-08T01:05:33;94023.18;;;7.42;41.20
77366;BME280;66430;50.182;11.704;2023-01-08T01:08:03;94023.00;;;7.33;41.43
77366;BME280;66430;50.182;11.704;2023-01-08T01:10:23;94026.34;;;7.24;41.56
77366;BME280;66430;50.182;11.704;2023-01-08T01:12:49;94028.78;;;7.40;41.43
77366;BME280;66430;50.182;11.704;2023-01-08T01:15:15;94030.74;;;7.39;41.27
77366;BME280;66430;50.182;11.704;2023-01-08T01:17:40;94034.76;;;7.48;41.09
77366;BME280;66430;50.182;11.704;2023-01-08T01:20:07;94034.27;;;7.76;41.21
77366;BME280;66430;50.182;11.704;2023-01-08T01:22:31;94036.44;;;7.23;41.21
77366;BME280;66430;50.182;11.704;2023-01-08T01:24:56;94037.27;;;7.57;41.12
77366;BME280;66430;50.182;11.704;2023-01-08T01:27:23;94042.65;;;7.40;40.94
77366;BME280;66430;50.182;11.704;2023-01-08T01:29:47;94041.84;;;7.40;40.83
77366;BME280;66430;50.182;11.704;2023-01-08T01:32:18;94038.82;;;7.45;41.00
77366;BME280;66430;50.182;11.704;2023-01-08T01:34:38;94035.04;;;7.83;40.94
77366;BME280;66430;50.182;11.704;2023-01-08T01:37:04;94039.14;;;7.60;41.13
77366;BME280;66430;50.182;11.704;2023-01-08T01:39:29;94036.54;;;7.32;41.29
77366;BME280;66430;50.182;11.704;2023-01-08T01:41:55;94035.32;;;7.59;41.27
77366;BME280;66430;50.182;11.704;2023-01-08T01:44:33;94031.84;;;6.80;41.59
77366;BME280;66430;50.182;11.704;2023-01-08T01:46:47;94026.20;;;7.58;41.11
77366;BME280;66430;50.182;11.704;2023-01-08T01:51:38;94037.49;;;7.15;40.97
77366;BME280;66430;50.182;11.704;2023-01-08T01:54:04;94034.26;;;7.15;41.21
77366;BME280;66430;50.182;11.704;2023-01-08T01:56:27;94034.29;;;7.19;40.77
77366;BME280;66430;50.182;11.704;2023-01-08T01:58:53;94028.99;;;7.46;40.76
77366;BME280;66430;50.182;11.704;2023-01-08T02:01:21;94029.73;;;7.23;41.24
77366;BME280;66430;50.182;11.704;2023-01-08T02:03:43;94025.26;;;7.21;41.32
77366;BME280;66430;50.182;11.704;2023-01-08T02:06:18;94023.60;;;7.62;41.03
77366;BME280;66430;50.182;11.704;2023-01-08T02:08:40;94021.07;;;7.25;41.44
77366;BME280;66430;50.182;11.704;2023-01-08T02:11:07;94013.32;;;7.62;41.19
77366;BME280;66430;50.182;11.704;2023-01-08T02:13:30;94011.43;;;7.20;41.37
77366;BME280;66430;50.182;11.704;2023-01-08T02:15:56;94010.04;;;7.37;40.89
77366;BME280;66430;50.182;11.704;2023-01-08T02:18:19;94009.23;;;7.04;40.93
77366;BME280;66430;50.182;11.704;2023-01-08T02:20:45;94005.52;;;7.61;40.94
77366;BME280;66430;50.182;11.704;2023-01-08T02:23:19;94005.44;;;7.32;41.22
77366;BME280;66430;50.182;11.704;2023-01-08T02:28:01;94010.08;;;7.26;41.63
77366;BME280;66430;50.182;11.704;2023-01-08T02:30:25;94008.82;;;7.12;41.44
77366;BME280;66430;50.182;11.704;2023-01-08T02:32:50;93998.29;;;7.07;41.64
77366;BME280;66430;50.182;11.704;2023-01-08T02:35:16;93985.13;;;7.00;41.37
77366;BME280;66430;50.182;11.704;2023-01-08T02:37:41;93991.25;;;6.86;41.63
77366;BME280;66430;50.182;11.704;2023-01-08T02:40:15;93991.52;;;7.37;41.14
77366;BME280;66430;50.182;11.704;2023-01-08T02:42:38;93992.97;;;7.10;41.07
77366;BME280;66430;50.182;11.704;2023-01-08T02:45:04;93994.82;;;7.21;41.29
77366;BME280;66430;50.182;11.704;2023-01-08T02:47:29;93991.88;;;6.90;40.96
77366;BME280;66430;50.182;11.704;2023-01-08T02:49:53;93991.71;;;7.36;41.06
77366;BME280;66430;50.182;11.704;2023-01-08T02:52:15;94001.26;;;7.32;41.13
77366;BME280;66430;50.182;11.704;2023-01-08T02:54:41;93994.71;;;7.17;41.08
77366;BME280;66430;50.182;11.704;2023-01-08T02:57:09;93994.26;;;7.24;41.12
77366;BME280;66430;50.182;11.704;2023-01-08T02:59:32;93993.85;;;7.43;41.44
77366;BME280;66430;50.182;11.704;2023-01-08T03:01:57;93987.19;;;7.29;41.27
77366;BME280;66430;50.182;11.704;2023-01-08T03:04:23;93987.61;;;7.14;41.85
77366;BME280;66430;50.182;11.704;2023-01-08T03:06:47;93986.84;;;7.14;41.62
77366;BME280;66430;50.182;11.704;2023-01-08T03:09:13;93989.07;;;7.17;41.65
77366;BME280;66430;50.182;11.704;2023-01-08T03:11:40;93989.00;;;7.51;41.42
77366;BME280;66430;50.182;11.704;2023-01-08T03:14:07;93984.76;;;7.22;41.83
77366;BME280;66430;50.182;11.704;2023-01-08T03:16:33;93971.52;;;7.20;41.48
77366;BME280;66430;50.182;11.704;2023-01-08T03:18:58;93968.63;;;7.68;41.17
77366;BME280;66430;50.182;11.704;2023-01-08T03:21:21;93961.52;;;7.23;41.66
77366;BME280;66430;50.182;11.704;2023-01-08T03:23:46;93961.01;;;7.53;41.11
77366;BME280;66430;50.182;11.704;2023-01-08T03:26:13;93953.87;;;7.81;40.98
77366;BME280;66430;50.182;11.704;2023-01-08T03:28:39;93956.87;;;7.66;40.98
77366;BME280;66430;50.182;11.704;2023-01-08T03:31:02;93950.66;;;7.70;41.04
77366;BME280;66430;50.182;11.704;2023-01-08T03:33:29;93948.69;;;7.53;41.25
77366;BME280;66430;50.182;11.704;2023-01-08T03:35:54;93943.87;;;7.89;41.12
77366;BME280;66430;50.182;11.704;2023-01-08T03:38:21;93939.05;;;7.98;41.02
77366;BME280;66430;50.182;11.704;2023-01-08T03:40:47;93935.10;;;8.26;40.83
77366;BME280;66430;50.182;11.704;2023-01-08T03:43:09;93937.74;;;8.09;40.75
77366;BME280;66430;50.182;11.704;2023-01-08T03:45:36;93932.81;;;8.00;40.92
77366;BME280;66430;50.182;11.704;2023-01-08T03:48:02;93941.82;;;8.16;41.23
77366;BME280;66430;50.182;11.704;2023-01-08T03:50:27;93945.63;;;7.93;41.29
77366;BME280;66430;50.182;11.704;2023-01-08T03:52:52;93949.47;;;7.98;41.14
77366;BME280;66430;50.182;11.704;2023-01-08T03:55:17;93938.09;;;8.06;41.04
77366;BME280;66430;50.182;11.704;2023-01-08T03:57:42;93936.20;;;8.31;41.07
77366;BME280;66430;50.182;11.704;2023-01-08T04:00:08;93933.88;;;8.10;41.04
77366;BME280;66430;50.182;11.704;2023-01-08T04:02:33;93929.31;;;8.41;41.12
77366;BME280;66430;50.182;11.704;2023-01-08T04:04:58;93926.99;;;8.08;41.05
77366;BME280;66430;50.182;11.704;2023-01-08T04:07:24;93929.01;;;8.17;40.95
77366;BME280;66430;50.182;11.704;2023-01-08T04:09:49;93923.18;;;8.02;40.87
77366;BME280;66430;50.182;11.704;2023-01-08T04:12:15;93916.61;;;8.26;40.86
77366;BME280;66430;50.182;11.704;2023-01-08T04:14:40;93905.33;;;8.35;40.49
77366;BME280;66430;50.182;11.704;2023-01-08T04:17:08;93905.86;;;8.34;40.28
77366;BME280;66430;50.182;11.704;2023-01-08T04:19:31;93902.15;;;8.42;40.40
77366;BME280;66430;50.182;11.704;2023-01-08T04:21:57;93899.10;;;8.69;40.46
77366;BME280;66430;50.182;11.704;2023-01-08T04:24:22;93898.12;;;8.66;40.83
77366;BME280;66430;50.182;11.704;2023-01-08T04:26:48;93900.29;;;8.25;41.16
77366;BME280;66430;50.182;11.704;2023-01-08T04:29:14;93897.64;;;8.33;40.89
77366;BME280;66430;50.182;11.704;2023-01-08T04:31:39;93888.64;;;8.16;40.65
77366;BME280;66430;50.182;11.704;2023-01-08T04:34:05;93885.10;;;7.99;40.49
77366;BME280;66430;50.182;11.704;2023-01-08T04:36:31;93887.18;;;8.48;40.62
77366;BME280;66430;50.182;11.704;2023-01-08T04:38:56;93885.94;;;7.81;40.78
77366;BME280;66430;50.182;11.704;2023-01-08T04:41:21;93887.08;;;8.36;41.06
77366;BME280;66430;50.182;11.704;2023-01-08T04:43:46;93879.38;;;8.21;40.79
77366;BME280;66430;50.182;11.704;2023-01-08T04:46:12;93874.24;;;8.46;40.86
77366;BME280;66430;50.182;11.704;2023-01-08T04:48:39;93870.67;;;8.80;40.77
77366;BME280;66430;50.182;11.704;2023-01-08T04:51:03;93868.89;;;8.38;40.69
77366;BME280;66430;50.182;11.704;2023-01-08T04:53:29;93867.91;;;8.69;40.51
77366;BME280;66430;50.182;11.704;2023-01-08T04:55:53;93870.58;;;8.43;40.64
77366;BME280;66430;50.182;11.704;2023-01-08T04:58:19;93872.48;;;8.25;40.60
77366;BME280;66430;50.182;11.704;2023-01-08T05:00:44;93868.64;;;8.43;41.06
77366;BME280;66430;50.182;11.704;2023-01-08T05:03:09;93868.56;;;8.21;40.84
77366;BME280;66430;50.182;11.704;2023-01-08T05:05:37;93863.86;;;8.44;40.85
77366;BME280;66430;50.182;11.704;2023-01-08T05:08:00;93867.02;;;8.18;40.71
77366;BME280;66430;50.182;11.704;2023-01-08T05:10:26;93862.41;;;8.45;40.66
77366;BME280;66430;50.182;11.704;2023-01-08T05:12:52;93866.75;;;8.49;40.85
77366;BME280;66430;50.182;11.704;2023-01-08T05:15:17;93867.16;;;8.34;40.87
77366;BME280;66430;50.182;11.704;2023-01-08T05:17:43;93865.21;;;8.28;40.68
77366;BME280;66430;50.182;11.704;2023-01-08T05:20:09;93862.94;;;8.88;40.47
77366;BME280;66430;50.182;11.704;2023-01-08T05:22:33;93864.66;;;8.70;40.74
77366;BME280;66430;50.182;11.704;2023-01-08T05:24:59;93864.25;;;8.47;40.81
77366;BME280;66430;50.182;11.704;2023-01-08T05:27:24;93863.49;;;8.49;40.79
77366;BME280;66430;50.182;11.704;2023-01-08T05:29:49;93855.79;;;8.53;40.69
77366;BME280;66430;50.182;11.704;2023-01-08T05:32:17;93846.04;;;8.79;40.92
77366;BME280;66430;50.182;11.704;2023-01-08T05:34:40;93846.03;;;8.75;41.15
77366;BME280;66430;50.182;11.704;2023-01-08T05:37:05;93847.32;;;9.03;41.17
77366;BME280;66430;50.182;11.704;2023-01-08T05:39:31;93848.60;;;8.54;40.84
77366;BME280;66430;50.182;11.704;2023-01-08T05:41:56;93843.40;;;8.58;40.41
77366;BME280;66430;50.182;11.704;2023-01-08T05:44:22;93844.97;;;8.81;40.39
77366;BME280;66430;50.182;11.704;2023-01-08T05:46:48;93846.62;;;8.84;40.43
77366;BME280;66430;50.182;11.704;2023-01-08T05:49:13;93840.80;;;8.61;40.21
77366;BME280;66430;50.182;11.704;2023-01-08T05:51:39;93837.37;;;8.66;40.40
77366;BME280;66430;50.182;11.704;2023-01-08T05:54:04;93846.96;;;8.64;40.44
77366;BME280;66430;50.182;11.704;2023-01-08T05:56:30;93845.56;;;8.64;40.44
77366;BME280;66430;50.182;11.704;2023-01-08T05:58:55;93848.01;;;8.63;40.10
77366;BME280;66430;50.182;11.704;2023-01-08T06:01:21;93847.77;;;8.54;40.40
77366;BME280;66430;50.182;11.704;2023-01-08T06:03:46;93847.61;;;8.42;40.25
77366;BME280;66430;50.182;11.704;2023-01-08T06:06:12;93843.01;;;8.28;40.73
77366;BME280;66430;50.182;11.704;2023-01-08T06:08:38;93840.92;;;8.51;40.47
77366;BME280;66430;50.182;11.704;2023-01-08T06:11:04;93834.65;;;8.79;40.18
77366;BME280;66430;50.182;11.704;2023-01-08T06:13:28;93829.69;;;8.98;40.26
77366;BME280;66430;50.182;11.704;2023-01-08T06:15:54;93828.67;;;9.03;40.01
77366;BME280;66430;50.182;11.704;2023-01-08T06:18:19;93826.74;;;8.85;39.87
77366;BME280;66430;50.182;11.704;2023-01-08T06:20:45;93827.32;;;8.88;39.92
77366;BME280;66430;50.182;11.704;2023-01-08T06:23:12;93822.88;;;8.89;39.79
77366;BME280;66430;50.182;11.704;2023-01-08T06:25:36;93824.10;;;8.89;39.75
77366;BME280;66430;50.182;11.704;2023-01-08T06:28:02;93825.44;;;8.63;39.81
77366;BME280;66430;50.182;11.704;2023-01-08T06:30:27;93822.32;;;8.65;39.60
77366;BME280;66430;50.182;11.704;2023-01-08T06:32:58;93820.68;;;8.64;39.84
77366;BME280;66430;50.182;11.704;2023-01-08T06:35:18;93817.69;;;8.69;39.60
77366;BME280;66430;50.182;11.704;2023-01-08T06:37:48;93821.38;;;8.93;39.55
77366;BME280;66430;50.182;11.704;2023-01-08T06:40:10;93822.42;;;8.71;39.59
77366;BME280;66430;50.182;11.704;2023-01-08T06:42:34;93821.35;;;8.62;39.84
77366;BME280;66430;50.182;11.704;2023-01-08T06:45:01;93819.07;;;9.16;39.49
77366;BME280;66430;50.182;11.704;2023-01-08T06:47:25;93812.20;;;8.65;39.53
77366;BME280;66430;50.182;11.704;2023-01-08T06:49:51;93806.77;;;8.59;39.55
77366;BME280;66430;50.182;11.704;2023-01-08T06:52:16;93800.19;;;8.65;39.34
77366;BME280;66430;50.182;11.704;2023-01-08T06:54:41;93796.11;;;8.64;39.28
77366;BME280;66430;50.182;11.704;2023-01-08T06:57:07;93789.50;;;8.89;39.27
77366;BME280;66430;50.182;11.704;2023-01-08T06:59:33;93785.12;;;8.64;39.25
77366;BME280;66430;50.182;11.704;2023-01-08T07:02:00;93788.84;;;8.61;39.37
77366;BME280;66430;50.182;11.704;2023-01-08T07:04:24;93801.16;;;8.40;39.42
77366;BME280;66430;50.182;11.704;2023-01-08T07:06:49;93811.37;;;8.54;39.50
77366;BME280;66430;50.182;11.704;2023-01-08T07:09:16;93814.25;;;8.03;39.80
77366;BME280;66430;50.182;11.704;2023-01-08T07:11:41;93814.92;;;8.14;40.13
77366;BME280;66430;50.182;11.704;2023-01-08T07:14:06;93815.39;;;8.32;40.29
77366;BME280;66430;50.182;11.704;2023-01-08T07:16:33;93819.26;;;8.11;40.25
77366;BME280;66430;50.182;11.704;2023-01-08T07:18:58;93824.66;;;8.10;40.51
77366;BME280;66430;50.182;11.704;2023-01-08T07:21:23;93822.19;;;8.08;40.67
77366;BME280;66430;50.182;11.704;2023-01-08T07:23:48;93818.63;;;7.90;41.02
77366;BME280;66430;50.182;11.704;2023-01-08T07:26:14;93816.03;;;7.79;40.90
77366;BME280;66430;50.182;11.704;2023-01-08T07:28:39;93809.13;;;8.20;40.60
77366;BME280;66430;50.182;11.704;2023-01-08T07:31:05;93806.77;;;7.80;40.47
77366;BME280;66430;50.182;11.704;2023-01-08T07:33:30;93799.89;;;8.39;40.33
77366;BME280;66430;50.182;11.704;2023-01-08T07:35:56;93796.59;;;8.26;40.36
77366;BME280;66430;50.182;11.704;2023-01-08T07:38:21;93797.13;;;7.88;40.42
77366;BME280;66430;50.182;11.704;2023-01-08T07:40:46;93794.54;;;8.07;40.36
77366;BME280;66430;50.182;11.704;2023-01-08T07:43:11;93793.20;;;8.48;40.30
77366;BME280;66430;50.182;11.704;2023-01-08T07:45:37;93787.06;;;8.64;39.84
77366;BME280;66430;50.182;11.704;2023-01-08T07:48:03;93782.08;;;8.28;40.06
77366;BME280;66430;50.182;11.704;2023-01-08T07:50:28;93783.80;;;8.33;40.11
77366;BME280;66430;50.182;11.704;2023-01-08T07:52:57;93787.75;;;8.60;40.13
77366;BME280;66430;50.182;11.704;2023-01-08T07:55:19;93785.29;;;8.41;40.02
77366;BME280;66430;50.182;11.704;2023-01-08T07:57:43;93784.09;;;8.33;40.07
77366;BME280;66430;50.182;11.704;2023-01-08T08:00:10;93774.04;;;8.34;40.18
77366;BME280;66430;50.182;11.704;2023-01-08T08:02:35;93774.21;;;8.65;40.42
77366;BME280;66430;50.182;11.704;2023-01-08T08:05:00;93773.95;;;8.28;40.31
77366;BME280;66430;50.182;11.704;2023-01-08T08:07:25;93770.97;;;8.71;40.65
77366;BME280;66430;50.182;11.704;2023-01-08T08:09:52;93772.14;;;8.87;40.42
77366;BME280;66430;50.182;11.704;2023-01-08T08:12:16;93771.90;;;8.07;40.80
77366;BME280;66430;50.182;11.704;2023-01-08T08:14:41;93767.63;;;8.36;40.46
77366;BME280;66430;50.182;11.704;2023-01-08T08:17:07;93760.24;;;8.88;40.56
77366;BME280;66430;50.182;11.704;2023-01-08T08:19:32;93765.75;;;8.67;40.45
77366;BME280;66430;50.182;11.704;2023-01-08T08:21:57;93762.53;;;8.76;40.56
77366;BME280;66430;50.182;11.704;2023-01-08T08:24:22;93759.48;;;9.12;40.42
77366;BME280;66430;50.182;11.704;2023-01-08T08:26:49;93762.18;;;8.86;40.32
77366;BME280;66430;50.182;11.704;2023-01-08T08:29:14;93766.92;;;9.17;40.01
77366;BME280;66430;50.182;11.704;2023-01-08T08:31:39;93772.29;;;8.74;40.22
77366;BME280;66430;50.182;11.704;2023-01-08T08:34:04;93780.68;;;8.86;40.08
77366;BME280;66430;50.182;11.704;2023-01-08T08:36:31;93775.61;;;9.06;40.04
77366;BME280;66430;50.182;11.704;2023-01-08T08:38:56;93779.09;;;8.84;39.84
77366;BME280;66430;50.182;11.704;2023-01-08T08:41:20;93780.08;;;8.82;39.93
77366;BME280;66430;50.182;11.704;2023-01-08T08:43:46;93773.90;;;9.10;39.92
77366;BME280;66430;50.182;11.704;2023-01-08T08:46:11;93777.58;;;9.21;40.08
77366;BME280;66430;50.182;11.704;2023-01-08T08:48:37;93778.18;;;8.65;40.04
77366;BME280;66430;50.182;11.704;2023-01-08T08:51:03;93786.46;;;8.58;40.56
77366;BME280;66430;50.182;11.704;2023-01-08T08:53:27;93788.61;;;8.76;40.64
77366;BME280;66430;50.182;11.704;2023-01-08T08:55:53;93785.48;;;8.65;40.47
77366;BME280;66430;50.182;11.704;2023-01-08T08:58:19;93788.53;;;8.66;40.55
77366;BME280;66430;50.182;11.704;2023-01-08T09:00:44;93800.38;;;8.33;40.51
77366;BME280;66430;50.182;11.704;2023-01-08T09:03:11;93803.73;;;8.59;40.21
77366;BME280;66430;50.182;11.704;2023-01-08T09:05:35;93788.26;;;8.32;40.59
77366;BME280;66430;50.182;11.704;2023-01-08T09:08:01;93782.50;;;8.54;40.20
77366;BME280;66430;50.182;11.704;2023-01-08T09:10:26;93778.90;;;8.39;40.35
77366;BME280;66430;50.182;11.704;2023-01-08T09:12:52;93789.39;;;8.42;40.49
77366;BME280;66430;50.182;11.704;2023-01-08T09:15:19;93783.32;;;8.54;40.42
77366;BME280;66430;50.182;11.704;2023-01-08T09:17:43;93790.30;;;8.60;40.46
77366;BME280;66430;50.182;11.704;2023-01-08T09:20:09;93799.18;;;8.61;40.27
77366;BME280;66430;50.182;11.704;2023-01-08T09:22:37;93797.30;;;8.76;40.19
77366;BME280;66430;50.182;11.704;2023-01-08T09:24:59;93799.61;;;8.86;40.13
77366;BME280;66430;50.182;11.704;2023-01-08T09:27:25;93799.09;;;8.86;39.95
77366;BME280;66430;50.182;11.704;2023-01-08T09:29:50;93802.80;;;8.53;40.35
77366;BME280;66430;50.182;11.704;2023-01-08T09:32:16;93795.76;;;8.87;40.08
77366;BME280;66430;50.182;11.704;2023-01-08T09:34:42;93788.31;;;9.26;39.99
77366;BME280;66430;50.182;11.704;2023-01-08T09:37:07;93783.98;;;8.67;40.10
77366;BME280;66430;50.182;11.704;2023-01-08T09:39:34;93785.67;;;8.65;40.12
77366;BME280;66430;50.182;11.704;2023-01-08T09:42:02;93782.70;;;8.68;40.10
77366;BME280;66430;50.182;11.704;2023-01-08T09:44:27;93787.80;;;8.48;40.86
77366;BME280;66430;50.182;11.704;2023-01-08T09:46:50;93788.30;;;8.73;40.37
77366;BME280;66430;50.182;11.704;2023-01-08T09:49:20;93801.36;;;8.33;40.57
77366;BME280;66430;50.182;11.704;2023-01-08T09:51:41;93811.33;;;8.81;40.61
77366;BME280;66430;50.182;11.704;2023-01-08T09:54:09;93816.14;;;8.91;40.34
77366;BME280;66430;50.182;11.704;2023-01-08T09:56:33;93811.11;;;8.01;41.73
77366;BME280;66430;50.182;11.704;2023-01-08T09:59:00;93810.38;;;8.62;40.60
77366;BME280;66430;50.182;11.704;2023-01-08T10:01:26;93806.32;;;8.64;40.37
77366;BME280;66430;50.182;11.704;2023-01-08T10:03:52;93794.32;;;8.40;40.95
77366;BME280;66430;50.182;11.704;2023-01-08T10:06:16;93794.58;;;8.37;40.60
77366;BME280;66430;50.182;11.704;2023-01-08T10:08:39;93779.36;;;8.92;40.45
77366;BME280;66430;50.182;11.704;2023-01-08T10:11:05;93790.03;;;8.35;41.05
77366;BME280;66430;50.182;11.704;2023-01-08T10:13:30;93785.46;;;8.37;41.01
77366;BME280;66430;50.182;11.704;2023-01-08T10:15:55;93788.60;;;8.04;41.53
77366;BME280;66430;50.182;11.704;2023-01-08T10:18:22;93780.02;;;8.16;41.60
77366;BME280;66430;50.182;11.704;2023-01-08T10:20:47;93773.50;;;7.80;41.70
77366;BME280;66430;50.182;11.704;2023-01-08T10:23:15;93770.84;;;8.01;41.43
77366;BME280;66430;50.182;11.704;2023-01-08T10:25:50;93765.75;;;8.48;41.04
77366;BME280;66430;50.182;11.704;2023-01-08T10:28:03;93766.62;;;8.49;41.08
77366;BME280;66430;50.182;11.704;2023-01-08T10:30:34;93764.39;;;8.26;41.15
77366;BME280;66430;50.182;11.704;2023-01-08T10:32:56;93764.31;;;8.47;41.00
77366;BME280;66430;50.182;11.704;2023-01-08T10:35:23;93763.01;;;8.72;40.80
77366;BME280;66430;50.182;11.704;2023-01-08T10:37:47;93756.13;;;8.67;40.89
77366;BME280;66430;50.182;11.704;2023-01-08T10:40:19;93748.57;;;8.80;40.59
77366;BME280;66430;50.182;11.704;2023-01-08T10:42:38;93748.98;;;8.74;40.94
77366;BME280;66430;50.182;11.704;2023-01-08T10:45:06;93746.38;;;8.95;40.86
77366;BME280;66430;50.182;11.704;2023-01-08T10:47:31;93746.09;;;8.24;42.17
77366;BME280;66430;50.182;11.704;2023-01-08T10:49:54;93735.71;;;8.67;41.36
77366;BME280;66430;50.182;11.704;2023-01-08T10:52:24;93732.88;;;8.45;41.30
77366;BME280;66430;50.182;11.704;2023-01-08T10:54:45;93729.55;;;8.77;41.14
77366;BME280;66430;50.182;11.704;2023-01-08T10:57:21;93726.28;;;9.06;41.39
77366;BME280;66430;50.182;11.704;2023-01-08T10:59:37;93723.89;;;8.82;42.01
77366;BME280;66430;50.182;11.704;2023-01-08T11:02:02;93712.20;;;8.97;41.46
77366;BME280;66430;50.182;11.704;2023-01-08T11:04:29;93712.20;;;9.39;41.39
77366;BME280;66430;50.182;11.704;2023-01-08T11:06:53;93708.84;;;8.97;42.03
77366;BME280;66430;50.182;11.704;2023-01-08T11:09:21;93713.88;;;9.22;41.66
77366;BME280;66430;50.182;11.704;2023-01-08T11:11:43;93707.07;;;9.29;41.84
77366;BME280;66430;50.182;11.704;2023-01-08T11:14:17;93707.09;;;9.06;41.79
77366;BME280;66430;50.182;11.704;2023-01-08T11:16:37;93703.92;;;8.93;42.14
77366;BME280;66430;50.182;11.704;2023-01-08T11:18:59;93696.74;;;8.72;42.86
77366;BME280;66430;50.182;11.704;2023-01-08T11:21:27;93701.98;;;8.83;42.79
77366;BME280;66430;50.182;11.704;2023-01-08T11:24:00;93696.44;;;9.06;42.87
77366;BME280;66430;50.182;11.704;2023-01-08T11:26:19;93699.58;;;9.18;42.80
77366;BME280;66430;50.182;11.704;2023-01-08T11:28:48;93688.40;;;8.51;43.72
77366;BME280;66430;50.182;11.704;2023-01-08T11:31:13;93687.80;;;9.11;42.80
77366;BME280;66430;50.182;11.704;2023-01-08T11:33:35;93686.22;;;9.27;43.13
77366;BME280;66430;50.182;11.704;2023-01-08T11:36:02;93681.44;;;9.38;43.12
77366;BME280;66430;50.182;11.704;2023-01-08T11:38:23;93682.03;;;9.21;43.00
77366;BME280;66430;50.182;11.704;2023-01-08T11:40:50;93678.10;;;9.29;43.31
77366;BME280;66430;50.182;11.704;2023-01-08T11:43:21;93675.24;;;9.15;43.06
77366;BME280;66430;50.182;11.704;2023-01-08T11:45:52;93677.96;;;9.23;43.20
77366;BME280;66430;50.182;11.704;2023-01-08T11:48:17;93676.71;;;9.55;43.08
77366;BME280;66430;50.182;11.704;2023-01-08T11:50:36;93674.94;;;9.19;43.34
77366;BME280;66430;50.182;11.704;2023-01-08T11:53:08;93672.27;;;9.03;44.12
77366;BME280;66430;50.182;11.704;2023-01-08T11:55:31;93671.20;;;9.31;43.24
77366;BME280;66430;50.182;11.704;2023-01-08T11:58:00;93671.81;;;9.39;43.56
77366;BME280;66430;50.182;11.704;2023-01-08T12:00:27;93674.28;;;9.01;43.66
77366;BME280;66430;50.182;11.704;2023-01-08T12:02:49;93675.53;;;9.35;43.49
77366;BME280;66430;50.182;11.704;2023-01-08T12:07:34;93668.08;;;9.17;43.90
77366;BME280;66430;50.182;11.704;2023-01-08T12:10:00;93665.01;;;9.45;43.42
77366;BME280;66430;50.182;11.704;2023-01-08T12:12:33;93665.30;;;9.48;43.40
77366;BME280;66430;50.182;11.704;2023-01-08T12:14:55;93656.83;;;9.18;43.31
77366;BME280;66430;50.182;11.704;2023-01-08T12:17:22;93653.97;;;9.27;43.27
77366;BME280;66430;50.182;11.704;2023-01-08T12:19:50;93650.55;;;9.07;43.50
77366;BME280;66430;50.182;11.704;2023-01-08T12:22:15;93649.12;;;9.27;43.75
77366;BME280;66430;50.182;11.704;2023-01-08T12:24:42;93650.19;;;9.44;43.45
77366;BME280;66430;50.182;11.704;2023-01-08T12:26:59;93645.10;;;8.49;44.63
77366;BME280;66430;50.182;11.704;2023-01-08T12:29:32;93642.53;;;9.01;44.35
77366;BME280;66430;50.182;11.704;2023-01-08T12:31:58;93644.57;;;9.01;43.75
77366;BME280;66430;50.182;11.704;2023-01-08T12:34:12;93641.76;;;9.22;43.96
77366;BME280;66430;50.182;11.704;2023-01-08T12:36:38;93633.22;;;8.93;44.15
77366;BME280;66430;50.182;11.704;2023-01-08T12:39:05;93634.31;;;9.26;44.48
77366;BME280;66430;50.182;11.704;2023-01-08T12:41:34;93631.21;;;9.32;44.04
77366;BME280;66430;50.182;11.704;2023-01-08T12:43:56;93626.76;;;9.24;44.17
77366;BME280;66430;50.182;11.704;2023-01-08T12:46:17;93618.60;;;8.72;44.74
77366;BME280;66430;50.182;11.704;2023-01-08T12:48:44;93622.04;;;8.79;44.96
77366;BME280;66430;50.182;11.704;2023-01-08T12:51:11;93616.61;;;9.06;44.45
77366;BME280;66430;50.182;11.704;2023-01-08T12:53:41;93621.47;;;8.92;44.78
77366;BME280;66430;50.182;11.704;2023-01-08T12:56:07;93618.81;;;9.21;44.42